sensor_id;sensor_type;location;lat;lon;timestamp;P1;durP1;ratioP1;P2;durP2;ratioP2
48285;SDS011;34102;47.716;10.296;2023-03-24T05:03:57;3.75;;;2.83;;
48285;SDS011;34102;47.716;10.296;2023-03-24T05:12:00;3.97;;;2.92;;
48285;SDS011;34102;47.716;10.296;2023-03-24T05:14:40;4.00;;;3.17;;
48285;SDS011;34102;47.716;10.296;2023-03-24T05:17:06;7.50;;;3.20;;
48285;SDS011;34102;47.716;10.296;2023-03-24T05:19:34;4.50;;;3.30;;
48285;SDS011;34102;47.716;10.296;2023-03-24T05:22:10;5.95;;;2.90;;
48285;SDS011;34102;47.716;10.296;2023-03-24T05:24:43;6.20;;;4.05;;
48285;SDS011;34102;47.716;10.296;2023-03-24T05:27:11;5.85;;;3.38;;
48285;SDS011;34102;47.716;10.296;2023-03-24T05:29:37;4.80;;;3.38;;
48285;SDS011;34102;47.716;10.296;2023-03-24T05:32:05;4.35;;;3.08;;
48285;SDS011;34102;47.716;10.296;2023-03-24T05:34:31;5.63;;;3.55;;
48285;SDS011;34102;47.716;10.296;2023-03-24T05:37:07;5.15;;;4.05;;
48285;SDS011;34102;47.716;10.296;2023-03-24T05:39:36;8.02;;;4.10;;
48285;SDS011;34102;47.716;10.296;2023-03-24T05:42:09;7.57;;;3.78;;
48285;SDS011;34102;47.716;10.296;2023-03-24T05:44:48;6.80;;;4.80;;
48285;SDS011;34102;47.716;10.296;2023-03-24T05:47:21;6.03;;;4.10;;
48285;SDS011;34102;47.716;10.296;2023-03-24T05:49:50;7.38;;;4.40;;
48285;SDS011;34102;47.716;10.296;2023-03-24T05:52:20;5.53;;;4.20;;
48285;SDS011;34102;47.716;10.296;2023-03-24T05:54:50;6.90;;;4.20;;
48285;SDS011;34102;47.716;10.296;2023-03-24T05:57:20;5.05;;;4.25;;
48285;SDS011;34102;47.716;10.296;2023-03-24T06:00:06;5.55;;;4.40;;
48285;SDS011;34102;47.716;10.296;2023-03-24T06:02:50;5.60;;;3.85;;
48285;SDS011;34102;47.716;10.296;2023-03-24T06:05:39;6.07;;;4.22;;
48285;SDS011;34102;47.716;10.296;2023-03-24T06:08:07;5.00;;;3.97;;
48285;SDS011;34102;47.716;10.296;2023-03-24T06:10:37;7.40;;;4.13;;
48285;SDS011;34102;47.716;10.296;2023-03-24T06:15:45;7.88;;;4.32;;
48285;SDS011;34102;47.716;10.296;2023-03-24T06:18:47;5.90;;;3.55;;
48285;SDS011;34102;47.716;10.296;2023-03-24T06:21:39;5.57;;;3.65;;
48285;SDS011;34102;47.716;10.296;2023-03-24T06:24:11;4.90;;;3.63;;
48285;SDS011;34102;47.716;10.296;2023-03-24T06:26:57;6.68;;;3.83;;
48285;SDS011;34102;47.716;10.296;2023-03-24T06:29:31;4.82;;;3.88;;
48285;SDS011;34102;47.716;10.296;2023-03-24T06:37:25;5.03;;;3.17;;
48285;SDS011;34102;47.716;10.296;2023-03-24T06:39:56;5.40;;;3.80;;
48285;SDS011;34102;47.716;10.296;2023-03-24T06:42:28;5.38;;;3.95;;
48285;SDS011;34102;47.716;10.296;2023-03-24T06:44:56;7.30;;;4.22;;
48285;SDS011;34102;47.716;10.296;2023-03-24T06:53:10;6.53;;;3.80;;
48285;SDS011;34102;47.716;10.296;2023-03-24T06:55:42;4.68;;;3.45;;
48285;SDS011;34102;47.716;10.296;2023-03-24T06:58:26;5.72;;;3.45;;
48285;SDS011;34102;47.716;10.296;2023-03-24T11:42:37;4.03;;;3.15;;
48285;SDS011;34102;47.716;10.296;2023-03-24T11:47:41;4.15;;;2.78;;
48285;SDS011;34102;47.716;10.296;2023-03-24T11:52:41;3.92;;;3.15;;
48285;SDS011;34102;47.716;10.296;2023-03-24T11:55:24;4.13;;;3.20;;
48285;SDS011;34102;47.716;10.296;2023-03-24T11:57:55;3.67;;;2.67;;
48285;SDS011;34102;47.716;10.296;2023-03-24T12:00:24;4.80;;;3.10;;
48285;SDS011;34102;47.716;10.296;2023-03-24T12:05:22;4.05;;;2.72;;
48285;SDS011;34102;47.716;10.296;2023-03-24T12:07:53;4.10;;;2.97;;
48285;SDS011;34102;47.716;10.296;2023-03-24T12:13:12;2.92;;;2.20;;
48285;SDS011;34102;47.716;10.296;2023-03-24T12:15:41;3.80;;;2.00;;
48285;SDS011;34102;47.716;10.296;2023-03-24T12:20:39;3.20;;;2.35;;
48285;SDS011;34102;47.716;10.296;2023-03-24T12:25:37;2.67;;;2.10;;
48285;SDS011;34102;47.716;10.296;2023-03-24T12:31:00;2.33;;;2.05;;
48285;SDS011;34102;47.716;10.296;2023-03-24T12:41:23;3.58;;;1.95;;
48285;SDS011;34102;47.716;10.296;2023-03-24T12:57:14;0.88;;;0.43;;
48285;SDS011;34102;47.716;10.296;2023-03-24T12:59:47;1.00;;;0.50;;
48285;SDS011;34102;47.716;10.296;2023-03-24T13:04:51;1.00;;;0.60;;
48285;SDS011;34102;47.716;10.296;2023-03-24T13:07:19;1.00;;;0.60;;
48285;SDS011;34102;47.716;10.296;2023-03-24T13:09:47;1.00;;;0.40;;
48285;SDS011;34102;47.716;10.296;2023-03-24T13:12:21;1.45;;;0.60;;
48285;SDS011;34102;47.716;10.296;2023-03-24T13:15:12;0.70;;;0.50;;
48285;SDS011;34102;47.716;10.296;2023-03-24T13:17:59;1.42;;;0.50;;
48285;SDS011;34102;47.716;10.296;2023-03-24T13:22:51;0.80;;;0.52;;
48285;SDS011;34102;47.716;10.296;2023-03-24T13:25:20;1.88;;;0.70;;
48285;SDS011;34102;47.716;10.296;2023-03-24T13:27:46;1.13;;;0.60;;
48285;SDS011;34102;47.716;10.296;2023-03-24T13:38:12;1.15;;;0.60;;
48285;SDS011;34102;47.716;10.296;2023-03-24T13:40:39;1.55;;;0.57;;
48285;SDS011;34102;47.716;10.296;2023-03-24T13:43:12;1.02;;;0.50;;
48285;SDS011;34102;47.716;10.296;2023-03-24T13:50:46;2.30;;;0.68;;
48285;SDS011;34102;47.716;10.296;2023-03-24T13:53:13;1.73;;;0.60;;
48285;SDS011;34102;47.716;10.296;2023-03-24T13:55:39;1.17;;;0.85;;
48285;SDS011;34102;47.716;10.296;2023-03-24T13:58:11;2.55;;;1.30;;
48285;SDS011;34102;47.716;10.296;2023-03-24T14:03:32;1.23;;;0.60;;
48285;SDS011;34102;47.716;10.296;2023-03-24T14:05:59;0.85;;;0.65;;
48285;SDS011;34102;47.716;10.296;2023-03-24T14:09:12;1.80;;;0.85;;
48285;SDS011;34102;47.716;10.296;2023-03-24T14:14:07;1.25;;;0.93;;
48285;SDS011;34102;47.716;10.296;2023-03-24T14:19:07;1.98;;;0.47;;
48285;SDS011;34102;47.716;10.296;2023-03-24T14:21:32;0.90;;;0.38;;
48285;SDS011;34102;47.716;10.296;2023-03-24T14:23:58;1.92;;;0.73;;
48285;SDS011;34102;47.716;10.296;2023-03-24T14:26:32;1.42;;;0.60;;
48285;SDS011;34102;47.716;10.296;2023-03-24T14:28:58;2.20;;;0.68;;
48285;SDS011;34102;47.716;10.296;2023-03-24T14:31:31;1.73;;;0.65;;
48285;SDS011;34102;47.716;10.296;2023-03-24T14:36:30;1.42;;;0.60;;
48285;SDS011;34102;47.716;10.296;2023-03-24T14:39:43;2.10;;;0.68;;
48285;SDS011;34102;47.716;10.296;2023-03-24T14:41:42;2.67;;;1.77;;
48285;SDS011;34102;47.716;10.296;2023-03-24T14:44:09;1.40;;;0.80;;
48285;SDS011;34102;47.716;10.296;2023-03-24T14:46:42;0.98;;;0.52;;
48285;SDS011;34102;47.716;10.296;2023-03-24T14:54:57;7.00;;;3.83;;
48285;SDS011;34102;47.716;10.296;2023-03-24T14:57:27;2.63;;;0.50;;
48285;SDS011;34102;47.716;10.296;2023-03-24T15:00:10;1.27;;;0.60;;
48285;SDS011;34102;47.716;10.296;2023-03-24T15:02:40;2.05;;;0.40;;
48285;SDS011;34102;47.716;10.296;2023-03-24T15:07:39;0.70;;;0.20;;
48285;SDS011;34102;47.716;10.296;2023-03-24T15:10:05;0.90;;;0.30;;
48285;SDS011;34102;47.716;10.296;2023-03-24T15:12:31;2.08;;;0.20;;
48285;SDS011;34102;47.716;10.296;2023-03-24T15:14:57;2.50;;;0.40;;
48285;SDS011;34102;47.716;10.296;2023-03-24T15:17:24;0.85;;;0.30;;
48285;SDS011;34102;47.716;10.296;2023-03-24T15:19:53;0.57;;;0.20;;
48285;SDS011;34102;47.716;10.296;2023-03-24T15:22:19;0.40;;;0.35;;
48285;SDS011;34102;47.716;10.296;2023-03-24T15:24:48;1.25;;;0.20;;
48285;SDS011;34102;47.716;10.296;2023-03-24T15:29:41;4.70;;;0.93;;
48285;SDS011;34102;47.716;10.296;2023-03-24T15:32:19;1.38;;;0.43;;
48285;SDS011;34102;47.716;10.296;2023-03-24T15:34:58;1.38;;;0.20;;
48285;SDS011;34102;47.716;10.296;2023-03-24T15:37:35;0.70;;;0.20;;
48285;SDS011;34102;47.716;10.296;2023-03-24T15:40:02;1.80;;;0.77;;
48285;SDS011;34102;47.716;10.296;2023-03-24T15:42:30;1.13;;;0.25;;
48285;SDS011;34102;47.716;10.296;2023-03-24T15:44:55;2.42;;;1.10;;
48285;SDS011;34102;47.716;10.296;2023-03-24T15:47:31;0.43;;;0.10;;
48285;SDS011;34102;47.716;10.296;2023-03-24T15:50:00;0.50;;;0.30;;
48285;SDS011;34102;47.716;10.296;2023-03-24T15:52:31;0.88;;;0.60;;
48285;SDS011;34102;47.716;10.296;2023-03-24T15:55:00;1.38;;;0.20;;
48285;SDS011;34102;47.716;10.296;2023-03-24T15:57:26;0.70;;;0.40;;
48285;SDS011;34102;47.716;10.296;2023-03-24T16:04:47;0.43;;;0.30;;
48285;SDS011;34102;47.716;10.296;2023-03-24T16:07:20;1.88;;;0.50;;
48285;SDS011;34102;47.716;10.296;2023-03-24T16:09:54;0.70;;;0.22;;
48285;SDS011;34102;47.716;10.296;2023-03-24T16:12:20;0.50;;;0.20;;
48285;SDS011;34102;47.716;10.296;2023-03-24T16:14:45;4.43;;;0.88;;
48285;SDS011;34102;47.716;10.296;2023-03-24T16:17:10;0.90;;;0.45;;
48285;SDS011;34102;47.716;10.296;2023-03-24T16:19:36;1.30;;;0.20;;
48285;SDS011;34102;47.716;10.296;2023-03-24T16:22:04;0.50;;;0.30;;
48285;SDS011;34102;47.716;10.296;2023-03-24T16:24:33;1.83;;;0.30;;
48285;SDS011;34102;47.716;10.296;2023-03-24T16:26:58;0.68;;;0.30;;
48285;SDS011;34102;47.716;10.296;2023-03-24T16:29:23;0.57;;;0.40;;
48285;SDS011;34102;47.716;10.296;2023-03-24T16:31:50;0.73;;;0.28;;
48285;SDS011;34102;47.716;10.296;2023-03-24T16:34:16;0.93;;;0.30;;
48285;SDS011;34102;47.716;10.296;2023-03-24T16:36:47;0.75;;;0.30;;
48285;SDS011;34102;47.716;10.296;2023-03-24T16:39:13;0.57;;;0.30;;
48285;SDS011;34102;47.716;10.296;2023-03-24T16:41:40;0.93;;;0.40;;
48285;SDS011;34102;47.716;10.296;2023-03-24T16:44:06;2.53;;;0.43;;
48285;SDS011;34102;47.716;10.296;2023-03-24T16:46:32;0.70;;;0.50;;
48285;SDS011;34102;47.716;10.296;2023-03-24T16:48:58;0.50;;;0.30;;
48285;SDS011;34102;47.716;10.296;2023-03-24T16:51:24;0.28;;;0.10;;
48285;SDS011;34102;47.716;10.296;2023-03-24T16:53:49;0.70;;;0.20;;
48285;SDS011;34102;47.716;10.296;2023-03-24T16:56:15;1.85;;;0.20;;
48285;SDS011;34102;47.716;10.296;2023-03-24T16:58:41;1.00;;;0.50;;
48285;SDS011;34102;47.716;10.296;2023-03-24T17:01:19;1.48;;;0.60;;
48285;SDS011;34102;47.716;10.296;2023-03-24T17:03:54;1.20;;;0.50;;
48285;SDS011;34102;47.716;10.296;2023-03-24T17:06:20;1.02;;;0.40;;
48285;SDS011;34102;47.716;10.296;2023-03-24T17:08:46;1.83;;;0.20;;
48285;SDS011;34102;47.716;10.296;2023-03-24T17:11:11;1.08;;;0.43;;
48285;SDS011;34102;47.716;10.296;2023-03-24T17:13:37;0.95;;;0.40;;
48285;SDS011;34102;47.716;10.296;2023-03-24T17:16:02;1.88;;;0.30;;
48285;SDS011;34102;47.716;10.296;2023-03-24T17:18:28;1.63;;;0.60;;
48285;SDS011;34102;47.716;10.296;2023-03-24T17:20:53;0.60;;;0.40;;
48285;SDS011;34102;47.716;10.296;2023-03-24T17:23:19;0.70;;;0.30;;
48285;SDS011;34102;47.716;10.296;2023-03-24T17:25:46;0.85;;;0.40;;
48285;SDS011;34102;47.716;10.296;2023-03-24T17:28:15;1.17;;;0.38;;
48285;SDS011;34102;47.716;10.296;2023-03-24T17:30:41;1.73;;;0.55;;
48285;SDS011;34102;47.716;10.296;2023-03-24T17:33:14;3.50;;;0.60;;
48285;SDS011;34102;47.716;10.296;2023-03-24T17:35:42;1.02;;;0.30;;
48285;SDS011;34102;47.716;10.296;2023-03-24T17:38:08;2.90;;;0.30;;
48285;SDS011;34102;47.716;10.296;2023-03-24T17:40:35;2.47;;;0.70;;
48285;SDS011;34102;47.716;10.296;2023-03-24T17:43:00;2.53;;;1.00;;
48285;SDS011;34102;47.716;10.296;2023-03-24T17:45:25;2.30;;;0.77;;
48285;SDS011;34102;47.716;10.296;2023-03-24T17:47:51;1.15;;;0.50;;
48285;SDS011;34102;47.716;10.296;2023-03-24T17:50:22;1.65;;;0.50;;
48285;SDS011;34102;47.716;10.296;2023-03-24T17:52:51;2.33;;;0.60;;
48285;SDS011;34102;47.716;10.296;2023-03-24T17:55:16;1.83;;;0.50;;
48285;SDS011;34102;47.716;10.296;2023-03-24T17:57:43;2.40;;;0.45;;
48285;SDS011;34102;47.716;10.296;2023-03-24T18:00:09;1.40;;;0.30;;
48285;SDS011;34102;47.716;10.296;2023-03-24T18:02:36;2.60;;;0.70;;
48285;SDS011;34102;47.716;10.296;2023-03-24T18:05:05;0.93;;;0.47;;
48285;SDS011;34102;47.716;10.296;2023-03-24T18:07:35;2.78;;;0.77;;
48285;SDS011;34102;47.716;10.296;2023-03-24T18:10:01;1.98;;;0.22;;
48285;SDS011;34102;47.716;10.296;2023-03-24T18:12:37;1.20;;;0.40;;
48285;SDS011;34102;47.716;10.296;2023-03-24T18:15:03;0.65;;;0.40;;
48285;SDS011;34102;47.716;10.296;2023-03-24T18:17:37;0.85;;;0.40;;
48285;SDS011;34102;47.716;10.296;2023-03-24T18:20:04;1.98;;;0.50;;
48285;SDS011;34102;47.716;10.296;2023-03-24T18:22:36;1.45;;;0.40;;
48285;SDS011;34102;47.716;10.296;2023-03-24T18:25:03;2.65;;;0.30;;
48285;SDS011;34102;47.716;10.296;2023-03-24T18:33:17;1.27;;;0.50;;
48285;SDS011;34102;47.716;10.296;2023-03-24T18:35:51;0.82;;;0.47;;
48285;SDS011;34102;47.716;10.296;2023-03-24T18:38:26;2.30;;;0.30;;
48285;SDS011;34102;47.716;10.296;2023-03-24T18:40:58;1.63;;;0.57;;
48285;SDS011;34102;47.716;10.296;2023-03-24T18:43:24;1.88;;;0.45;;
48285;SDS011;34102;47.716;10.296;2023-03-24T18:45:49;1.70;;;0.57;;
48285;SDS011;34102;47.716;10.296;2023-03-24T18:51:04;1.30;;;0.60;;
48285;SDS011;34102;47.716;10.296;2023-03-24T18:53:30;2.55;;;0.38;;
48285;SDS011;34102;47.716;10.296;2023-03-24T18:56:02;0.80;;;0.40;;
48285;SDS011;34102;47.716;10.296;2023-03-24T18:58:32;1.40;;;0.50;;
48285;SDS011;34102;47.716;10.296;2023-03-24T19:01:09;0.88;;;0.40;;
48285;SDS011;34102;47.716;10.296;2023-03-24T19:03:41;1.15;;;0.65;;
48285;SDS011;34102;47.716;10.296;2023-03-24T19:06:13;0.73;;;0.30;;
48285;SDS011;34102;47.716;10.296;2023-03-24T19:09:02;3.03;;;0.32;;
48285;SDS011;34102;47.716;10.296;2023-03-24T19:11:29;0.68;;;0.40;;
48285;SDS011;34102;47.716;10.296;2023-03-24T19:13:57;0.80;;;0.28;;
48285;SDS011;34102;47.716;10.296;2023-03-24T19:16:24;0.50;;;0.30;;
48285;SDS011;34102;47.716;10.296;2023-03-24T19:18:50;0.90;;;0.40;;
48285;SDS011;34102;47.716;10.296;2023-03-24T19:21:18;0.60;;;0.30;;
48285;SDS011;34102;47.716;10.296;2023-03-24T19:23:47;1.33;;;0.45;;
48285;SDS011;34102;47.716;10.296;2023-03-24T19:26:12;0.70;;;0.40;;
48285;SDS011;34102;47.716;10.296;2023-03-24T19:28:41;1.40;;;0.50;;
48285;SDS011;34102;47.716;10.296;2023-03-24T19:31:09;1.13;;;0.50;;
48285;SDS011;34102;47.716;10.296;2023-03-24T19:33:37;0.93;;;0.50;;
48285;SDS011;34102;47.716;10.296;2023-03-24T19:36:03;1.50;;;0.55;;
48285;SDS011;34102;47.716;10.296;2023-03-24T19:38:29;1.10;;;0.40;;
48285;SDS011;34102;47.716;10.296;2023-03-24T19:40:57;1.73;;;0.30;;
48285;SDS011;34102;47.716;10.296;2023-03-24T19:43:23;0.88;;;0.45;;
48285;SDS011;34102;47.716;10.296;2023-03-24T19:45:52;0.95;;;0.30;;
48285;SDS011;34102;47.716;10.296;2023-03-24T19:48:17;0.93;;;0.40;;
48285;SDS011;34102;47.716;10.296;2023-03-24T19:50:43;1.00;;;0.50;;
48285;SDS011;34102;47.716;10.296;2023-03-24T19:53:10;0.82;;;0.43;;
48285;SDS011;34102;47.716;10.296;2023-03-24T19:55:36;1.30;;;0.30;;
48285;SDS011;34102;47.716;10.296;2023-03-24T19:58:02;0.60;;;0.25;;
48285;SDS011;34102;47.716;10.296;2023-03-24T20:00:27;0.98;;;0.52;;
48285;SDS011;34102;47.716;10.296;2023-03-24T20:02:53;1.90;;;0.50;;
48285;SDS011;34102;47.716;10.296;2023-03-24T20:05:18;1.30;;;0.50;;
48285;SDS011;34102;47.716;10.296;2023-03-24T20:07:47;0.73;;;0.38;;
48285;SDS011;34102;47.716;10.296;2023-03-24T20:10:12;1.98;;;0.63;;
48285;SDS011;34102;47.716;10.296;2023-03-24T20:12:38;1.27;;;0.40;;
48285;SDS011;34102;47.716;10.296;2023-03-24T20:15:06;0.68;;;0.20;;
48285;SDS011;34102;47.716;10.296;2023-03-24T20:17:32;0.45;;;0.20;;
48285;SDS011;34102;47.716;10.296;2023-03-24T20:20:04;0.68;;;0.25;;
48285;SDS011;34102;47.716;10.296;2023-03-24T20:22:33;0.60;;;0.30;;
48285;SDS011;34102;47.716;10.296;2023-03-24T20:24:58;1.27;;;0.40;;
48285;SDS011;34102;47.716;10.296;2023-03-24T20:27:26;0.93;;;0.20;;
48285;SDS011;34102;47.716;10.296;2023-03-24T20:29:54;0.50;;;0.28;;
48285;SDS011;34102;47.716;10.296;2023-03-24T20:32:22;0.80;;;0.30;;
48285;SDS011;34102;47.716;10.296;2023-03-24T20:34:47;0.77;;;0.30;;
48285;SDS011;34102;47.716;10.296;2023-03-24T20:37:13;0.68;;;0.30;;
48285;SDS011;34102;47.716;10.296;2023-03-24T20:39:39;0.98;;;0.20;;
48285;SDS011;34102;47.716;10.296;2023-03-24T20:42:07;1.10;;;0.30;;
48285;SDS011;34102;47.716;10.296;2023-03-24T20:44:33;1.10;;;0.30;;
48285;SDS011;34102;47.716;10.296;2023-03-24T20:47:01;1.85;;;0.47;;
48285;SDS011;34102;47.716;10.296;2023-03-24T20:49:27;0.75;;;0.20;;
48285;SDS011;34102;47.716;10.296;2023-03-24T20:51:55;0.85;;;0.30;;
48285;SDS011;34102;47.716;10.296;2023-03-24T20:54:21;0.98;;;0.40;;
48285;SDS011;34102;47.716;10.296;2023-03-24T20:56:47;1.00;;;0.40;;
48285;SDS011;34102;47.716;10.296;2023-03-24T20:59:14;2.13;;;0.30;;
48285;SDS011;34102;47.716;10.296;2023-03-24T21:01:40;1.95;;;0.30;;
48285;SDS011;34102;47.716;10.296;2023-03-24T21:04:06;1.67;;;0.40;;
48285;SDS011;34102;47.716;10.296;2023-03-24T21:06:31;1.70;;;0.57;;
48285;SDS011;34102;47.716;10.296;2023-03-24T21:08:57;3.42;;;0.40;;
48285;SDS011;34102;47.716;10.296;2023-03-24T21:11:24;1.05;;;0.50;;
48285;SDS011;34102;47.716;10.296;2023-03-24T21:13:49;0.90;;;0.30;;
48285;SDS011;34102;47.716;10.296;2023-03-24T21:16:15;0.80;;;0.30;;
48285;SDS011;34102;47.716;10.296;2023-03-24T21:18:44;0.85;;;0.32;;
48285;SDS011;34102;47.716;10.296;2023-03-24T21:21:12;0.47;;;0.20;;
48285;SDS011;34102;47.716;10.296;2023-03-24T21:23:38;0.88;;;0.38;;
48285;SDS011;34102;47.716;10.296;2023-03-24T21:26:07;0.95;;;0.25;;
48285;SDS011;34102;47.716;10.296;2023-03-24T21:28:32;0.95;;;0.45;;
48285;SDS011;34102;47.716;10.296;2023-03-24T21:31:02;2.28;;;0.50;;
48285;SDS011;34102;47.716;10.296;2023-03-24T21:33:30;1.23;;;0.65;;
48285;SDS011;34102;47.716;10.296;2023-03-24T21:35:58;0.85;;;0.38;;
48285;SDS011;34102;47.716;10.296;2023-03-24T21:38:23;0.80;;;0.30;;
48285;SDS011;34102;47.716;10.296;2023-03-24T21:40:56;0.45;;;0.20;;
48285;SDS011;34102;47.716;10.296;2023-03-24T21:43:22;1.25;;;0.30;;
48285;SDS011;34102;47.716;10.296;2023-03-24T21:45:47;1.15;;;0.20;;
48285;SDS011;34102;47.716;10.296;2023-03-24T21:48:18;0.85;;;0.40;;
48285;SDS011;34102;47.716;10.296;2023-03-24T21:50:45;1.90;;;0.45;;
48285;SDS011;34102;47.716;10.296;2023-03-24T21:53:10;1.77;;;1.00;;
48285;SDS011;34102;47.716;10.296;2023-03-24T21:55:39;4.40;;;1.05;;
48285;SDS011;34102;47.716;10.296;2023-03-24T21:58:04;1.10;;;0.38;;
48285;SDS011;34102;47.716;10.296;2023-03-24T22:00:30;1.65;;;0.40;;
48285;SDS011;34102;47.716;10.296;2023-03-24T22:02:59;2.78;;;0.68;;
48285;SDS011;34102;47.716;10.296;2023-03-24T22:05:25;1.23;;;0.35;;
48285;SDS011;34102;47.716;10.296;2023-03-24T22:07:54;1.17;;;0.50;;
48285;SDS011;34102;47.716;10.296;2023-03-24T22:10:20;1.42;;;0.50;;
48285;SDS011;34102;47.716;10.296;2023-03-24T22:12:50;3.33;;;0.50;;
48285;SDS011;34102;47.716;10.296;2023-03-24T22:15:16;2.70;;;0.47;;
48285;SDS011;34102;47.716;10.296;2023-03-24T22:17:41;2.25;;;0.30;;
48285;SDS011;34102;47.716;10.296;2023-03-24T22:20:07;2.42;;;0.60;;
48285;SDS011;34102;47.716;10.296;2023-03-24T22:22:36;2.45;;;0.50;;
48285;SDS011;34102;47.716;10.296;2023-03-24T22:25:02;1.38;;;0.50;;
48285;SDS011;34102;47.716;10.296;2023-03-24T22:27:28;2.45;;;0.70;;
48285;SDS011;34102;47.716;10.296;2023-03-24T22:29:54;1.02;;;0.30;;
48285;SDS011;34102;47.716;10.296;2023-03-24T22:32:19;1.13;;;0.30;;
48285;SDS011;34102;47.716;10.296;2023-03-24T22:34:45;1.20;;;0.30;;
48285;SDS011;34102;47.716;10.296;2023-03-24T22:37:12;0.70;;;0.35;;
48285;SDS011;34102;47.716;10.296;2023-03-24T22:39:38;2.13;;;0.60;;
48285;SDS011;34102;47.716;10.296;2023-03-24T22:42:03;0.60;;;0.30;;
48285;SDS011;34102;47.716;10.296;2023-03-24T22:44:29;1.77;;;0.40;;
48285;SDS011;34102;47.716;10.296;2023-03-24T22:46:58;2.00;;;0.40;;
48285;SDS011;34102;47.716;10.296;2023-03-24T22:49:26;1.08;;;0.40;;
48285;SDS011;34102;47.716;10.296;2023-03-24T22:51:53;1.38;;;0.65;;
48285;SDS011;34102;47.716;10.296;2023-03-24T22:54:18;1.38;;;0.45;;
48285;SDS011;34102;47.716;10.296;2023-03-24T22:56:43;2.55;;;0.50;;
48285;SDS011;34102;47.716;10.296;2023-03-24T22:59:09;1.35;;;0.40;;
48285;SDS011;34102;47.716;10.296;2023-03-24T23:01:34;1.13;;;0.30;;
48285;SDS011;34102;47.716;10.296;2023-03-24T23:04:00;1.65;;;0.60;;
48285;SDS011;34102;47.716;10.296;2023-03-24T23:06:26;1.38;;;0.50;;
48285;SDS011;34102;47.716;10.296;2023-03-24T23:08:54;1.10;;;0.47;;
48285;SDS011;34102;47.716;10.296;2023-03-24T23:11:19;1.23;;;0.50;;
48285;SDS011;34102;47.716;10.296;2023-03-24T23:13:45;1.63;;;0.45;;
48285;SDS011;34102;47.716;10.296;2023-03-24T23:16:20;2.20;;;0.45;;
48285;SDS011;34102;47.716;10.296;2023-03-24T23:18:45;0.93;;;0.40;;
48285;SDS011;34102;47.716;10.296;2023-03-24T23:21:13;3.33;;;0.40;;
48285;SDS011;34102;47.716;10.296;2023-03-24T23:23:40;1.25;;;0.40;;
48285;SDS011;34102;47.716;10.296;2023-03-24T23:26:05;2.47;;;0.50;;
48285;SDS011;34102;47.716;10.296;2023-03-24T23:28:31;2.10;;;0.43;;
48285;SDS011;34102;47.716;10.296;2023-03-24T23:31:10;3.10;;;0.63;;
48285;SDS011;34102;47.716;10.296;2023-03-24T23:33:38;3.85;;;0.93;;
48285;SDS011;34102;47.716;10.296;2023-03-24T23:36:06;1.60;;;0.73;;
48285;SDS011;34102;47.716;10.296;2023-03-24T23:38:32;1.40;;;0.60;;
48285;SDS011;34102;47.716;10.296;2023-03-24T23:40:58;1.95;;;0.28;;
48285;SDS011;34102;47.716;10.296;2023-03-24T23:43:23;0.43;;;0.28;;
48285;SDS011;34102;47.716;10.296;2023-03-24T23:45:53;2.08;;;0.38;;
48285;SDS011;34102;47.716;10.296;2023-03-24T23:48:18;0.80;;;0.20;;
48285;SDS011;34102;47.716;10.296;2023-03-24T23:50:44;1.90;;;0.20;;
48285;SDS011;34102;47.716;10.296;2023-03-24T23:53:13;1.65;;;0.40;;
48285;SDS011;34102;47.716;10.296;2023-03-24T23:55:39;2.05;;;0.30;;
48285;SDS011;34102;47.716;10.296;2023-03-24T23:58:05;2.45;;;0.30;;
